sensor_id;sensor_type;location;lat;lon;timestamp;pressure;altitude;pressure_sealevel;temperature;humidity
63903;BME280;50072;50.678;13.938;2023-04-10T00:00:46;100456.69;;;5.56;77.34
63903;BME280;50072;50.678;13.938;2023-04-10T00:03:22;100456.66;;;5.48;78.02
63903;BME280;50072;50.678;13.938;2023-04-10T00:05:48;100447.81;;;5.46;77.60
63903;BME280;50072;50.678;13.938;2023-04-10T00:08:14;100445.94;;;5.37;78.09
63903;BME280;50072;50.678;13.938;2023-04-10T00:10:40;100445.00;;;5.27;79.29
63903;BME280;50072;50.678;13.938;2023-04-10T00:13:06;100458.28;;;5.29;79.52
63903;BME280;50072;50.678;13.938;2023-04-10T00:15:33;100456.47;;;5.26;79.33
63903;BME280;50072;50.678;13.938;2023-04-10T00:18:00;100454.63;;;5.16;79.57
63903;BME280;50072;50.678;13.938;2023-04-10T00:20:26;100455.34;;;5.01;80.40
63903;BME280;50072;50.678;13.938;2023-04-10T00:22:52;100452.66;;;4.98;80.82
63903;BME280;50072;50.678;13.938;2023-04-10T00:25:30;100453.47;;;4.92;82.48
63903;BME280;50072;50.678;13.938;2023-04-10T00:27:57;100453.44;;;4.89;82.59
63903;BME280;50072;50.678;13.938;2023-04-10T00:30:31;100464.94;;;4.91;83.21
63903;BME280;50072;50.678;13.938;2023-04-10T00:33:01;100464.91;;;4.85;83.88
63903;BME280;50072;50.678;13.938;2023-04-10T00:35:29;100462.19;;;4.80;84.72
63903;BME280;50072;50.678;13.938;2023-04-10T00:37:55;100458.72;;;4.84;85.14
63903;BME280;50072;50.678;13.938;2023-04-10T00:40:22;100459.63;;;4.88;84.93
63903;BME280;50072;50.678;13.938;2023-04-10T00:42:47;100455.34;;;5.01;84.76
63903;BME280;50072;50.678;13.938;2023-04-10T00:45:13;100453.66;;;5.11;84.69
63903;BME280;50072;50.678;13.938;2023-04-10T00:47:39;100450.22;;;5.21;84.70
63903;BME280;50072;50.678;13.938;2023-04-10T00:50:05;100452.06;;;5.30;83.69
63903;BME280;50072;50.678;13.938;2023-04-10T00:52:32;100453.00;;;5.35;83.17
63903;BME280;50072;50.678;13.938;2023-04-10T00:54:58;100445.94;;;5.39;83.18
63903;BME280;50072;50.678;13.938;2023-04-10T00:57:23;100441.56;;;5.44;82.97
63903;BME280;50072;50.678;13.938;2023-04-10T00:59:50;100439.84;;;5.47;81.81
63903;BME280;50072;50.678;13.938;2023-04-10T01:02:17;100445.19;;;5.55;82.17
63903;BME280;50072;50.678;13.938;2023-04-10T01:04:45;100446.16;;;5.62;82.29
63903;BME280;50072;50.678;13.938;2023-04-10T01:07:20;100448.94;;;5.79;82.01
63903;BME280;50072;50.678;13.938;2023-04-10T01:10:14;100453.22;;;5.61;81.51
63903;BME280;50072;50.678;13.938;2023-04-10T01:12:54;100454.97;;;5.56;81.44
63903;BME280;50072;50.678;13.938;2023-04-10T01:15:26;100451.38;;;5.51;81.94
63903;BME280;50072;50.678;13.938;2023-04-10T01:20:25;100447.97;;;5.67;81.90
63903;BME280;50072;50.678;13.938;2023-04-10T01:26:06;100449.72;;;5.70;81.77
63903;BME280;50072;50.678;13.938;2023-04-10T01:31:07;100450.59;;;5.64;82.17
63903;BME280;50072;50.678;13.938;2023-04-10T01:33:49;100448.00;;;5.75;82.97
63903;BME280;50072;50.678;13.938;2023-04-10T01:36:23;100456.06;;;5.86;82.75
63903;BME280;50072;50.678;13.938;2023-04-10T01:38:52;100452.63;;;5.99;81.98
63903;BME280;50072;50.678;13.938;2023-04-10T01:41:22;100451.81;;;6.11;80.81
63903;BME280;50072;50.678;13.938;2023-04-10T01:43:49;100448.28;;;6.11;81.37
63903;BME280;50072;50.678;13.938;2023-04-10T01:46:18;100449.13;;;6.03;81.29
63903;BME280;50072;50.678;13.938;2023-04-10T01:48:45;100444.72;;;6.10;81.96
63903;BME280;50072;50.678;13.938;2023-04-10T01:51:12;100442.09;;;6.18;81.55
63903;BME280;50072;50.678;13.938;2023-04-10T01:53:39;100437.66;;;6.17;82.38
63903;BME280;50072;50.678;13.938;2023-04-10T01:56:07;100445.69;;;6.23;82.56
63903;BME280;50072;50.678;13.938;2023-04-10T01:58:37;100436.84;;;6.29;81.69
63903;BME280;50072;50.678;13.938;2023-04-10T02:01:03;100444.81;;;6.27;81.58
63903;BME280;50072;50.678;13.938;2023-04-10T02:03:29;100451.00;;;6.23;81.65
63903;BME280;50072;50.678;13.938;2023-04-10T02:06:21;100441.25;;;6.22;81.90
63903;BME280;50072;50.678;13.938;2023-04-10T02:08:54;100440.34;;;6.20;81.99
63903;BME280;50072;50.678;13.938;2023-04-10T02:14:10;100423.47;;;6.09;82.47
63903;BME280;50072;50.678;13.938;2023-04-10T02:16:37;100423.34;;;5.92;82.77
63903;BME280;50072;50.678;13.938;2023-04-10T02:19:04;100433.06;;;5.94;82.69
63903;BME280;50072;50.678;13.938;2023-04-10T02:21:32;100430.50;;;5.97;82.33
63903;BME280;50072;50.678;13.938;2023-04-10T02:23:58;100430.38;;;5.90;83.26
63903;BME280;50072;50.678;13.938;2023-04-10T02:26:25;100432.16;;;5.87;83.10
63903;BME280;50072;50.678;13.938;2023-04-10T02:28:51;100433.06;;;5.94;82.92
63903;BME280;50072;50.678;13.938;2023-04-10T02:31:18;100428.59;;;5.85;83.44
63903;BME280;50072;50.678;13.938;2023-04-10T02:33:44;100423.16;;;5.68;83.50
63903;BME280;50072;50.678;13.938;2023-04-10T02:36:11;100426.63;;;5.57;84.33
63903;BME280;50072;50.678;13.938;2023-04-10T02:38:44;100423.97;;;5.55;84.98
63903;BME280;50072;50.678;13.938;2023-04-10T02:41:14;100430.97;;;5.48;85.17
63903;BME280;50072;50.678;13.938;2023-04-10T02:43:41;100428.28;;;5.42;86.01
63903;BME280;50072;50.678;13.938;2023-04-10T02:46:07;100427.34;;;5.39;86.06
63903;BME280;50072;50.678;13.938;2023-04-10T02:48:32;100420.28;;;5.34;85.70
63903;BME280;50072;50.678;13.938;2023-04-10T02:50:59;100422.88;;;5.31;85.38
63903;BME280;50072;50.678;13.938;2023-04-10T02:53:25;100425.47;;;5.22;85.50
63903;BME280;50072;50.678;13.938;2023-04-10T02:55:52;100430.66;;;5.13;85.76
63903;BME280;50072;50.678;13.938;2023-04-10T02:58:19;100432.41;;;5.08;85.44
63903;BME280;50072;50.678;13.938;2023-04-10T03:00:47;100422.53;;;4.94;86.16
63903;BME280;50072;50.678;13.938;2023-04-10T03:03:13;100431.41;;;4.93;86.57
63903;BME280;50072;50.678;13.938;2023-04-10T03:05:39;100431.31;;;4.89;87.31
63903;BME280;50072;50.678;13.938;2023-04-10T03:08:06;100444.47;;;4.75;87.91
63903;BME280;50072;50.678;13.938;2023-04-10T03:10:32;100439.88;;;4.63;88.80
63903;BME280;50072;50.678;13.938;2023-04-10T03:12:57;100442.41;;;4.49;89.77
63903;BME280;50072;50.678;13.938;2023-04-10T03:15:23;100440.41;;;4.32;90.04
63903;BME280;50072;50.678;13.938;2023-04-10T03:17:49;100441.22;;;4.27;89.96
63903;BME280;50072;50.678;13.938;2023-04-10T03:20:15;100444.75;;;4.29;90.19
63903;BME280;50072;50.678;13.938;2023-04-10T03:22:41;100435.91;;;4.27;91.39
63903;BME280;50072;50.678;13.938;2023-04-10T03:25:07;100435.84;;;4.21;93.52
63903;BME280;50072;50.678;13.938;2023-04-10T03:27:34;100441.16;;;4.22;94.96
63903;BME280;50072;50.678;13.938;2023-04-10T03:30:02;100437.72;;;4.29;94.30
63903;BME280;50072;50.678;13.938;2023-04-10T03:32:41;100431.50;;;4.27;95.02
63903;BME280;50072;50.678;13.938;2023-04-10T03:35:14;100431.44;;;4.21;94.41
63903;BME280;50072;50.678;13.938;2023-04-10T03:37:40;100441.13;;;4.19;95.13
63903;BME280;50072;50.678;13.938;2023-04-10T03:40:13;100433.22;;;4.22;95.30
63903;BME280;50072;50.678;13.938;2023-04-10T03:42:44;100435.94;;;4.28;94.96
63903;BME280;50072;50.678;13.938;2023-04-10T03:45:16;100447.47;;;4.32;93.84
63903;BME280;50072;50.678;13.938;2023-04-10T03:47:44;100450.16;;;4.35;93.19
63903;BME280;50072;50.678;13.938;2023-04-10T03:50:10;100456.41;;;4.40;92.84
63903;BME280;50072;50.678;13.938;2023-04-10T03:52:37;100462.59;;;4.39;93.07
63903;BME280;50072;50.678;13.938;2023-04-10T03:55:04;100452.94;;;4.46;92.36
63903;BME280;50072;50.678;13.938;2023-04-10T03:57:31;100453.81;;;4.45;91.45
63903;BME280;50072;50.678;13.938;2023-04-10T03:59:57;100458.34;;;4.52;91.63
63903;BME280;50072;50.678;13.938;2023-04-10T04:02:23;100457.31;;;4.41;91.82
63903;BME280;50072;50.678;13.938;2023-04-10T04:04:49;100445.59;;;4.23;92.49
63903;BME280;50072;50.678;13.938;2023-04-10T04:07:15;100457.75;;;4.09;92.88
63903;BME280;50072;50.678;13.938;2023-04-10T04:09:41;100461.53;;;4.26;93.06
63903;BME280;50072;50.678;13.938;2023-04-10T04:12:06;100458.94;;;4.31;92.92
63903;BME280;50072;50.678;13.938;2023-04-10T04:14:32;100459.91;;;4.36;92.14
63903;BME280;50072;50.678;13.938;2023-04-10T04:16:58;100453.66;;;4.31;92.68
63903;BME280;50072;50.678;13.938;2023-04-10T04:19:24;100464.22;;;4.28;92.84
63903;BME280;50072;50.678;13.938;2023-04-10T04:21:50;100460.75;;;4.34;92.37
63903;BME280;50072;50.678;13.938;2023-04-10T04:24:16;100466.16;;;4.44;92.67
63903;BME280;50072;50.678;13.938;2023-04-10T04:26:41;100461.97;;;4.60;92.97
63903;BME280;50072;50.678;13.938;2023-04-10T04:29:07;100467.38;;;4.70;91.71
63903;BME280;50072;50.678;13.938;2023-04-10T04:31:33;100472.72;;;4.76;91.42
63903;BME280;50072;50.678;13.938;2023-04-10T04:33:59;100477.16;;;4.77;91.50
63903;BME280;50072;50.678;13.938;2023-04-10T04:36:25;100477.19;;;4.80;91.39
63903;BME280;50072;50.678;13.938;2023-04-10T04:38:52;100472.00;;;4.86;91.31
63903;BME280;50072;50.678;13.938;2023-04-10T04:41:18;100467.63;;;4.94;91.55
63903;BME280;50072;50.678;13.938;2023-04-10T04:43:44;100473.84;;;4.95;91.66
63903;BME280;50072;50.678;13.938;2023-04-10T04:46:12;100472.03;;;4.92;91.01
63903;BME280;50072;50.678;13.938;2023-04-10T04:48:38;100479.75;;;4.71;91.30
63903;BME280;50072;50.678;13.938;2023-04-10T04:51:07;100484.06;;;4.62;91.39
63903;BME280;50072;50.678;13.938;2023-04-10T04:53:33;100484.91;;;4.58;92.47
63903;BME280;50072;50.678;13.938;2023-04-10T04:55:58;100485.94;;;4.70;92.18
63903;BME280;50072;50.678;13.938;2023-04-10T04:58:24;100486.78;;;4.69;91.91
63903;BME280;50072;50.678;13.938;2023-04-10T05:00:53;100484.94;;;4.61;91.96
63903;BME280;50072;50.678;13.938;2023-04-10T05:03:19;100487.59;;;4.61;92.41
63903;BME280;50072;50.678;13.938;2023-04-10T05:05:46;100493.69;;;4.54;93.10
63903;BME280;50072;50.678;13.938;2023-04-10T05:08:13;100486.53;;;4.48;93.32
63903;BME280;50072;50.678;13.938;2023-04-10T05:10:41;100489.19;;;4.48;93.10
63903;BME280;50072;50.678;13.938;2023-04-10T05:13:06;100491.97;;;4.56;92.54
63903;BME280;50072;50.678;13.938;2023-04-10T05:15:34;100494.50;;;4.50;93.04
63903;BME280;50072;50.678;13.938;2023-04-10T05:18:00;100501.53;;;4.43;93.67
63903;BME280;50072;50.678;13.938;2023-04-10T05:20:28;100503.25;;;4.43;94.35
63903;BME280;50072;50.678;13.938;2023-04-10T05:22:54;100502.41;;;4.44;94.40
63903;BME280;50072;50.678;13.938;2023-04-10T05:25:27;100503.44;;;4.57;94.42
63903;BME280;50072;50.678;13.938;2023-04-10T05:28:02;100505.28;;;4.61;93.84
63903;BME280;50072;50.678;13.938;2023-04-10T05:30:36;100510.63;;;4.65;94.02
63903;BME280;50072;50.678;13.938;2023-04-10T05:33:11;100508.00;;;4.69;93.37
63903;BME280;50072;50.678;13.938;2023-04-10T05:35:42;100500.88;;;4.63;94.05
63903;BME280;50072;50.678;13.938;2023-04-10T05:38:14;100497.38;;;4.65;94.19
63903;BME280;50072;50.678;13.938;2023-04-10T05:40:45;100507.13;;;4.68;94.72
63903;BME280;50072;50.678;13.938;2023-04-10T05:43:14;100506.34;;;4.77;94.54
63903;BME280;50072;50.678;13.938;2023-04-10T05:45:45;100515.31;;;4.88;94.45
63903;BME280;50072;50.678;13.938;2023-04-10T05:48:14;100511.81;;;4.89;94.13
63903;BME280;50072;50.678;13.938;2023-04-10T05:50:40;100511.91;;;4.98;94.05
63903;BME280;50072;50.678;13.938;2023-04-10T05:53:06;100516.38;;;5.06;93.60
63903;BME280;50072;50.678;13.938;2023-04-10T05:55:31;100510.25;;;5.11;93.22
63903;BME280;50072;50.678;13.938;2023-04-10T05:57:57;100505.94;;;5.21;92.97
63903;BME280;50072;50.678;13.938;2023-04-10T06:00:23;100503.41;;;5.30;91.92
63903;BME280;50072;50.678;13.938;2023-04-10T06:02:50;100499.94;;;5.38;91.42
63903;BME280;50072;50.678;13.938;2023-04-10T06:05:16;100503.56;;;5.47;91.47
63903;BME280;50072;50.678;13.938;2023-04-10T06:07:42;100499.19;;;5.56;91.02
63903;BME280;50072;50.678;13.938;2023-04-10T06:10:09;100503.75;;;5.70;89.94
63903;BME280;50072;50.678;13.938;2023-04-10T06:12:35;100502.94;;;5.79;89.21
63903;BME280;50072;50.678;13.938;2023-04-10T06:15:01;100504.78;;;5.93;89.20
63903;BME280;50072;50.678;13.938;2023-04-10T06:17:27;100500.50;;;6.05;87.80
63903;BME280;50072;50.678;13.938;2023-04-10T06:19:52;100501.44;;;6.17;87.29
63903;BME280;50072;50.678;13.938;2023-04-10T06:22:18;100499.75;;;6.28;86.46
63903;BME280;50072;50.678;13.938;2023-04-10T06:24:44;100497.16;;;6.34;86.05
63903;BME280;50072;50.678;13.938;2023-04-10T06:27:10;100496.31;;;6.46;85.39
63903;BME280;50072;50.678;13.938;2023-04-10T06:29:36;100493.69;;;6.54;85.19
63903;BME280;50072;50.678;13.938;2023-04-10T06:32:09;100507.91;;;6.67;84.57
63903;BME280;50072;50.678;13.938;2023-04-10T06:34:35;100500.88;;;6.78;83.96
63903;BME280;50072;50.678;13.938;2023-04-10T06:37:01;100504.44;;;6.85;83.12
63903;BME280;50072;50.678;13.938;2023-04-10T06:39:27;100500.06;;;6.95;82.55
63903;BME280;50072;50.678;13.938;2023-04-10T06:41:54;100496.53;;;6.99;82.57
63903;BME280;50072;50.678;13.938;2023-04-10T06:44:20;100494.78;;;7.07;83.10
63903;BME280;50072;50.678;13.938;2023-04-10T06:46:49;100500.09;;;7.21;82.32
63903;BME280;50072;50.678;13.938;2023-04-10T06:49:16;100492.16;;;7.33;82.18
63903;BME280;50072;50.678;13.938;2023-04-10T06:51:43;100493.94;;;7.45;80.95
63903;BME280;50072;50.678;13.938;2023-04-10T06:54:10;100492.19;;;7.61;79.82
63903;BME280;50072;50.678;13.938;2023-04-10T06:56:36;100486.84;;;7.76;79.28
63903;BME280;50072;50.678;13.938;2023-04-10T06:59:02;100494.81;;;7.92;77.69
63903;BME280;50072;50.678;13.938;2023-04-10T07:01:29;100498.38;;;7.99;76.07
63903;BME280;50072;50.678;13.938;2023-04-10T07:03:54;100499.25;;;8.08;76.30
63903;BME280;50072;50.678;13.938;2023-04-10T07:06:20;100501.88;;;8.28;76.71
63903;BME280;50072;50.678;13.938;2023-04-10T07:08:48;100496.50;;;8.53;76.14
63903;BME280;50072;50.678;13.938;2023-04-10T07:11:15;100492.00;;;8.72;75.38
63903;BME280;50072;50.678;13.938;2023-04-10T07:13:40;100496.31;;;8.95;75.87
63903;BME280;50072;50.678;13.938;2023-04-10T07:16:09;100489.13;;;9.14;73.93
63903;BME280;50072;50.678;13.938;2023-04-10T07:18:34;100494.31;;;9.36;73.37
63903;BME280;50072;50.678;13.938;2023-04-10T07:21:11;100496.81;;;9.59;72.44
63903;BME280;50072;50.678;13.938;2023-04-10T07:23:38;100495.81;;;9.75;70.98
63903;BME280;50072;50.678;13.938;2023-04-10T07:26:06;100494.81;;;9.85;68.64
63903;BME280;50072;50.678;13.938;2023-04-10T07:28:32;100493.00;;;9.91;67.98
63903;BME280;50072;50.678;13.938;2023-04-10T07:30:58;100493.78;;;9.99;67.58
63903;BME280;50072;50.678;13.938;2023-04-10T07:33:23;100494.75;;;9.95;66.37
63903;BME280;50072;50.678;13.938;2023-04-10T07:35:51;100493.66;;;10.14;67.25
63903;BME280;50072;50.678;13.938;2023-04-10T07:38:17;100493.56;;;10.25;66.22
63903;BME280;50072;50.678;13.938;2023-04-10T07:40:44;100485.44;;;10.33;65.91
63903;BME280;50072;50.678;13.938;2023-04-10T07:43:10;100486.94;;;10.62;64.97
63903;BME280;50072;50.678;13.938;2023-04-10T07:45:36;100483.91;;;10.88;64.43
63903;BME280;50072;50.678;13.938;2023-04-10T07:48:02;100483.72;;;11.03;63.02
63903;BME280;50072;50.678;13.938;2023-04-10T07:50:29;100468.44;;;11.10;63.49
63903;BME280;50072;50.678;13.938;2023-04-10T07:52:55;100471.66;;;11.34;63.59
63903;BME280;50072;50.678;13.938;2023-04-10T07:55:21;100471.28;;;11.57;62.46
63903;BME280;50072;50.678;13.938;2023-04-10T07:57:47;100472.72;;;11.78;62.58
63903;BME280;50072;50.678;13.938;2023-04-10T08:00:15;100470.75;;;11.89;60.94
63903;BME280;50072;50.678;13.938;2023-04-10T08:02:41;100462.53;;;12.02;60.92
63903;BME280;50072;50.678;13.938;2023-04-10T08:05:07;100471.56;;;11.96;59.28
63903;BME280;50072;50.678;13.938;2023-04-10T08:07:32;100460.91;;;11.90;59.53
63903;BME280;50072;50.678;13.938;2023-04-10T08:09:59;100456.06;;;12.12;60.38
63903;BME280;50072;50.678;13.938;2023-04-10T08:12:25;100453.13;;;12.26;60.12
63903;BME280;50072;50.678;13.938;2023-04-10T08:14:56;100459.81;;;12.50;60.73
63903;BME280;50072;50.678;13.938;2023-04-10T08:17:21;100469.25;;;12.70;57.20
63903;BME280;50072;50.678;13.938;2023-04-10T08:19:54;100470.09;;;12.72;55.83
63903;BME280;50072;50.678;13.938;2023-04-10T08:22:26;100457.91;;;12.98;55.76
63903;BME280;50072;50.678;13.938;2023-04-10T08:25:03;100450.13;;;13.24;55.63
63903;BME280;50072;50.678;13.938;2023-04-10T08:27:31;100440.06;;;12.93;55.62
63903;BME280;50072;50.678;13.938;2023-04-10T08:30:04;100440.38;;;13.20;57.15
63903;BME280;50072;50.678;13.938;2023-04-10T08:32:32;100445.66;;;13.62;54.75
63903;BME280;50072;50.678;13.938;2023-04-10T08:35:14;100447.34;;;14.01;54.04
63903;BME280;50072;50.678;13.938;2023-04-10T08:37:41;100452.53;;;14.09;52.99
63903;BME280;50072;50.678;13.938;2023-04-10T08:40:13;100443.69;;;14.37;52.95
63903;BME280;50072;50.678;13.938;2023-04-10T08:42:44;100438.50;;;14.29;54.30
63903;BME280;50072;50.678;13.938;2023-04-10T08:45:14;100449.00;;;14.40;52.12
63903;BME280;50072;50.678;13.938;2023-04-10T08:47:44;100445.25;;;14.77;51.85
63903;BME280;50072;50.678;13.938;2023-04-10T08:50:16;100448.09;;;15.30;50.36
63903;BME280;50072;50.678;13.938;2023-04-10T08:52:44;100433.25;;;15.72;50.60
63903;BME280;50072;50.678;13.938;2023-04-10T08:55:12;100440.13;;;16.33;48.80
63903;BME280;50072;50.678;13.938;2023-04-10T08:57:42;100435.63;;;16.33;47.33
63903;BME280;50072;50.678;13.938;2023-04-10T09:00:09;100433.06;;;16.54;46.65
63903;BME280;50072;50.678;13.938;2023-04-10T09:02:37;100428.44;;;16.58;46.27
63903;BME280;50072;50.678;13.938;2023-04-10T09:05:09;100431.03;;;16.83;45.05
63903;BME280;50072;50.678;13.938;2023-04-10T09:07:35;100430.47;;;17.22;45.25
63903;BME280;50072;50.678;13.938;2023-04-10T09:10:02;100424.03;;;17.69;42.17
63903;BME280;50072;50.678;13.938;2023-04-10T09:12:28;100419.41;;;18.14;42.27
63903;BME280;50072;50.678;13.938;2023-04-10T09:14:55;100422.31;;;18.29;41.77
63903;BME280;50072;50.678;13.938;2023-04-10T09:17:23;100423.41;;;18.05;42.15
63903;BME280;50072;50.678;13.938;2023-04-10T09:19:53;100413.06;;;17.50;42.49
63903;BME280;50072;50.678;13.938;2023-04-10T09:22:31;100410.94;;;17.14;41.88
63903;BME280;50072;50.678;13.938;2023-04-10T09:25:02;100409.66;;;16.53;42.87
63903;BME280;50072;50.678;13.938;2023-04-10T09:27:32;100420.97;;;16.15;44.07
63903;BME280;50072;50.678;13.938;2023-04-10T09:30:03;100419.31;;;16.36;44.46
63903;BME280;50072;50.678;13.938;2023-04-10T09:32:43;100407.50;;;16.86;44.82
63903;BME280;50072;50.678;13.938;2023-04-10T09:35:12;100410.25;;;16.85;42.37
63903;BME280;50072;50.678;13.938;2023-04-10T09:37:38;100399.91;;;16.25;43.12
63903;BME280;50072;50.678;13.938;2023-04-10T09:40:21;100399.63;;;15.82;46.31
63903;BME280;50072;50.678;13.938;2023-04-10T09:42:48;100405.88;;;15.56;44.50
63903;BME280;50072;50.678;13.938;2023-04-10T09:45:16;100398.41;;;15.64;45.04
63903;BME280;50072;50.678;13.938;2023-04-10T09:50:37;100394.75;;;16.90;43.05
63903;BME280;50072;50.678;13.938;2023-04-10T09:53:03;100393.75;;;17.37;40.74
63903;BME280;50072;50.678;13.938;2023-04-10T09:55:29;100384.03;;;18.56;39.46
63903;BME280;50072;50.678;13.938;2023-04-10T09:57:56;100390.94;;;19.40;37.59
63903;BME280;50072;50.678;13.938;2023-04-10T10:00:23;100375.69;;;19.55;37.12
63903;BME280;50072;50.678;13.938;2023-04-10T10:02:50;100381.69;;;19.25;37.77
63903;BME280;50072;50.678;13.938;2023-04-10T10:05:18;100380.47;;;18.56;38.35
63903;BME280;50072;50.678;13.938;2023-04-10T10:07:45;100375.69;;;18.42;38.96
63903;BME280;50072;50.678;13.938;2023-04-10T10:10:11;100371.00;;;18.45;38.38
63903;BME280;50072;50.678;13.938;2023-04-10T10:12:43;100371.84;;;19.41;38.10
63903;BME280;50072;50.678;13.938;2023-04-10T10:15:35;100359.59;;;20.71;35.21
63903;BME280;50072;50.678;13.938;2023-04-10T10:18:12;100352.41;;;21.48;33.57
63903;BME280;50072;50.678;13.938;2023-04-10T10:20:44;100354.25;;;21.64;33.52
63903;BME280;50072;50.678;13.938;2023-04-10T10:23:10;100350.19;;;21.71;32.64
63903;BME280;50072;50.678;13.938;2023-04-10T10:25:36;100343.53;;;20.82;33.50
63903;BME280;50072;50.678;13.938;2023-04-10T10:28:04;100338.19;;;20.81;33.49
63903;BME280;50072;50.678;13.938;2023-04-10T10:30:33;100344.31;;;21.00;33.52
63903;BME280;50072;50.678;13.938;2023-04-10T10:33:02;100339.50;;;21.36;33.61
63903;BME280;50072;50.678;13.938;2023-04-10T10:35:30;100335.09;;;21.65;32.77
63903;BME280;50072;50.678;13.938;2023-04-10T10:37:59;100332.09;;;21.24;32.71
63903;BME280;50072;50.678;13.938;2023-04-10T10:43:35;100331.31;;;22.98;31.14
63903;BME280;50072;50.678;13.938;2023-04-10T10:46:09;100319.88;;;22.64;30.34
63903;BME280;50072;50.678;13.938;2023-04-10T10:48:36;100323.50;;;23.06;30.33
63903;BME280;50072;50.678;13.938;2023-04-10T10:51:02;100324.09;;;23.51;29.93
63903;BME280;50072;50.678;13.938;2023-04-10T10:53:44;100330.94;;;23.84;28.16
63903;BME280;50072;50.678;13.938;2023-04-10T10:58:54;100315.44;;;24.99;28.27
63903;BME280;50072;50.678;13.938;2023-04-10T11:01:25;100310.19;;;23.41;29.29
63903;BME280;50072;50.678;13.938;2023-04-10T11:03:52;100298.63;;;24.04;28.96
63903;BME280;50072;50.678;13.938;2023-04-10T11:06:20;100295.25;;;25.37;27.42
63903;BME280;50072;50.678;13.938;2023-04-10T11:08:50;100286.16;;;25.95;25.44
63903;BME280;50072;50.678;13.938;2023-04-10T11:11:24;100294.25;;;25.85;24.49
63903;BME280;50072;50.678;13.938;2023-04-10T11:16:20;100284.13;;;26.44;24.40
63903;BME280;50072;50.678;13.938;2023-04-10T11:21:20;100274.31;;;27.61;22.35
63903;BME280;50072;50.678;13.938;2023-04-10T11:26:34;100275.94;;;25.39;24.58
63903;BME280;50072;50.678;13.938;2023-04-10T11:31:44;100266.63;;;27.86;21.40
63903;BME280;50072;50.678;13.938;2023-04-10T11:34:10;100260.59;;;28.95;21.27
63903;BME280;50072;50.678;13.938;2023-04-10T11:36:38;100263.63;;;28.41;21.34
63903;BME280;50072;50.678;13.938;2023-04-10T11:39:06;100252.94;;;29.47;20.67
63903;BME280;50072;50.678;13.938;2023-04-10T11:41:49;100248.78;;;26.28;23.66
63903;BME280;50072;50.678;13.938;2023-04-10T11:44:36;100246.13;;;25.81;24.33
63903;BME280;50072;50.678;13.938;2023-04-10T11:47:04;100235.09;;;24.50;25.86
63903;BME280;50072;50.678;13.938;2023-04-10T11:49:31;100232.66;;;27.33;22.33
63903;BME280;50072;50.678;13.938;2023-04-10T11:51:58;100228.50;;;28.74;21.33
63903;BME280;50072;50.678;13.938;2023-04-10T11:54:25;100236.78;;;30.29;19.51
63903;BME280;50072;50.678;13.938;2023-04-10T11:57:03;100224.69;;;29.83;20.66
63903;BME280;50072;50.678;13.938;2023-04-10T11:59:31;100220.28;;;29.03;21.19
63903;BME280;50072;50.678;13.938;2023-04-10T12:02:11;100221.00;;;29.15;20.87
63903;BME280;50072;50.678;13.938;2023-04-10T12:04:41;100197.22;;;28.85;20.74
63903;BME280;50072;50.678;13.938;2023-04-10T12:07:08;100202.28;;;28.89;21.07
63903;BME280;50072;50.678;13.938;2023-04-10T12:09:34;100208.56;;;30.81;20.33
63903;BME280;50072;50.678;13.938;2023-04-10T12:12:02;100190.88;;;31.72;18.64
63903;BME280;50072;50.678;13.938;2023-04-10T12:17:02;100183.03;;;32.63;17.56
63903;BME280;50072;50.678;13.938;2023-04-10T12:19:29;100182.63;;;34.31;16.64
63903;BME280;50072;50.678;13.938;2023-04-10T12:21:58;100181.88;;;33.72;15.84
63903;BME280;50072;50.678;13.938;2023-04-10T12:27:22;100178.44;;;33.04;16.16
63903;BME280;50072;50.678;13.938;2023-04-10T12:29:51;100167.22;;;31.52;17.39
63903;BME280;50072;50.678;13.938;2023-04-10T12:32:18;100168.50;;;29.93;18.59
63903;BME280;50072;50.678;13.938;2023-04-10T12:37:16;100157.44;;;31.57;17.26
63903;BME280;50072;50.678;13.938;2023-04-10T12:39:44;100160.09;;;31.67;16.80
63903;BME280;50072;50.678;13.938;2023-04-10T12:42:12;100158.66;;;32.24;16.08
63903;BME280;50072;50.678;13.938;2023-04-10T12:44:53;100159.66;;;31.80;17.06
63903;BME280;50072;50.678;13.938;2023-04-10T12:47:21;100164.28;;;30.91;17.72
63903;BME280;50072;50.678;13.938;2023-04-10T12:52:34;100169.34;;;30.77;17.35
63903;BME280;50072;50.678;13.938;2023-04-10T12:57:40;100140.22;;;32.06;17.38
63903;BME280;50072;50.678;13.938;2023-04-10T13:00:08;100154.00;;;30.65;17.09
63903;BME280;50072;50.678;13.938;2023-04-10T13:02:36;100137.75;;;31.42;17.90
63903;BME280;50072;50.678;13.938;2023-04-10T13:05:03;100129.97;;;32.41;17.20
63903;BME280;50072;50.678;13.938;2023-04-10T13:07:29;100124.16;;;30.87;16.90
63903;BME280;50072;50.678;13.938;2023-04-10T13:09:57;100132.44;;;31.75;17.55
63903;BME280;50072;50.678;13.938;2023-04-10T13:12:23;100129.78;;;30.59;18.28
63903;BME280;50072;50.678;13.938;2023-04-10T13:14:53;100124.03;;;32.20;17.61
63903;BME280;50072;50.678;13.938;2023-04-10T13:17:20;100118.63;;;33.10;17.15
63903;BME280;50072;50.678;13.938;2023-04-10T13:19:46;100108.22;;;33.45;16.02
63903;BME280;50072;50.678;13.938;2023-04-10T13:22:13;100115.28;;;31.45;17.43
63903;BME280;50072;50.678;13.938;2023-04-10T13:24:40;100104.16;;;27.68;21.12
63903;BME280;50072;50.678;13.938;2023-04-10T13:27:09;100107.63;;;30.41;19.10
63903;BME280;50072;50.678;13.938;2023-04-10T13:29:38;100098.09;;;32.29;17.19
63903;BME280;50072;50.678;13.938;2023-04-10T13:32:05;100102.44;;;31.62;17.19
63903;BME280;50072;50.678;13.938;2023-04-10T13:34:34;100104.66;;;28.53;20.60